sensor_id;sensor_type;location;lat;lon;timestamp;pressure;altitude;pressure_sealevel;temperature
20730;BMP280;10526;50.850;12.928;2024-03-23T00:52:53;97113.19;;;9.04
20730;BMP280;10526;50.850;12.928;2024-03-23T00:57:14;97105.72;;;9.22
20730;BMP280;10526;50.850;12.928;2024-03-23T01:01:35;97102.47;;;9.34
20730;BMP280;10526;50.850;12.928;2024-03-23T01:06:02;97100.38;;;9.45
20730;BMP280;10526;50.850;12.928;2024-03-23T01:10:23;97088.44;;;9.53
20730;BMP280;10526;50.850;12.928;2024-03-23T01:14:45;97084.94;;;9.60
20730;BMP280;10526;50.850;12.928;2024-03-23T01:19:06;97076.59;;;9.58
20730;BMP280;10526;50.850;12.928;2024-03-23T01:23:27;97065.81;;;9.45
20730;BMP280;10526;50.850;12.928;2024-03-23T01:27:48;97055.91;;;9.26
20730;BMP280;10526;50.850;12.928;2024-03-23T01:32:09;97050.63;;;9.02
20730;BMP280;10526;50.850;12.928;2024-03-23T01:36:30;97039.22;;;8.79
20730;BMP280;10526;50.850;12.928;2024-03-23T01:40:57;97036.09;;;8.60
20730;BMP280;10526;50.850;12.928;2024-03-23T01:45:18;97033.66;;;8.46
20730;BMP280;10526;50.850;12.928;2024-03-23T01:49:40;97021.22;;;8.39
20730;BMP280;10526;50.850;12.928;2024-03-23T01:54:02;97009.25;;;8.28
20730;BMP280;10526;50.850;12.928;2024-03-23T01:58:24;97009.06;;;8.15
20730;BMP280;10526;50.850;12.928;2024-03-23T02:02:46;97006.13;;;8.06
20730;BMP280;10526;50.850;12.928;2024-03-23T02:07:07;97001.06;;;7.91
20730;BMP280;10526;50.850;12.928;2024-03-23T02:11:28;97005.34;;;7.78
20730;BMP280;10526;50.850;12.928;2024-03-23T02:15:49;97001.34;;;7.66
20730;BMP280;10526;50.850;12.928;2024-03-23T02:20:12;97003.75;;;7.54
20730;BMP280;10526;50.850;12.928;2024-03-23T02:24:33;96994.00;;;7.44
20730;BMP280;10526;50.850;12.928;2024-03-23T02:28:55;97006.81;;;7.49
20730;BMP280;10526;50.850;12.928;2024-03-23T02:33:16;96989.97;;;7.66
20730;BMP280;10526;50.850;12.928;2024-03-23T02:37:37;96968.56;;;7.84
20730;BMP280;10526;50.850;12.928;2024-03-23T02:41:58;96967.00;;;7.86
20730;BMP280;10526;50.850;12.928;2024-03-23T02:46:19;96970.66;;;7.69
20730;BMP280;10526;50.850;12.928;2024-03-23T02:50:40;96956.09;;;7.50
20730;BMP280;10526;50.850;12.928;2024-03-23T02:55:03;96959.31;;;7.34
20730;BMP280;10526;50.850;12.928;2024-03-23T02:59:24;96947.97;;;7.34
20730;BMP280;10526;50.850;12.928;2024-03-23T03:03:45;96942.97;;;7.39
20730;BMP280;10526;50.850;12.928;2024-03-23T03:08:07;96941.00;;;7.47
20730;BMP280;10526;50.850;12.928;2024-03-23T03:12:28;96933.63;;;7.62
20730;BMP280;10526;50.850;12.928;2024-03-23T03:16:49;96936.22;;;7.69
20730;BMP280;10526;50.850;12.928;2024-03-23T03:21:10;96935.31;;;7.79
20730;BMP280;10526;50.850;12.928;2024-03-23T03:25:34;96915.22;;;7.82
20730;BMP280;10526;50.850;12.928;2024-03-23T03:29:55;96905.81;;;7.77
20730;BMP280;10526;50.850;12.928;2024-03-23T03:34:16;96910.00;;;7.75
20730;BMP280;10526;50.850;12.928;2024-03-23T03:38:37;96907.44;;;7.67
20730;BMP280;10526;50.850;12.928;2024-03-23T03:43:02;96903.72;;;7.65
20730;BMP280;10526;50.850;12.928;2024-03-23T03:47:23;96893.91;;;7.62
20730;BMP280;10526;50.850;12.928;2024-03-23T03:51:44;96893.91;;;7.62
20730;BMP280;10526;50.850;12.928;2024-03-23T03:56:05;96871.28;;;7.57
20730;BMP280;10526;50.850;12.928;2024-03-23T04:00:26;96867.16;;;7.53
20730;BMP280;10526;50.850;12.928;2024-03-23T04:04:47;96846.34;;;7.51
20730;BMP280;10526;50.850;12.928;2024-03-23T04:09:09;96834.31;;;7.47
20730;BMP280;10526;50.850;12.928;2024-03-23T04:13:31;96813.44;;;7.49
20730;BMP280;10526;50.850;12.928;2024-03-23T04:17:52;96798.66;;;7.24
20730;BMP280;10526;50.850;12.928;2024-03-23T04:22:13;96804.31;;;7.26
20730;BMP280;10526;50.850;12.928;2024-03-23T04:26:42;96800.50;;;7.27
20730;BMP280;10526;50.850;12.928;2024-03-23T04:31:06;96802.78;;;7.25
20730;BMP280;10526;50.850;12.928;2024-03-23T04:35:27;96795.53;;;7.33
20730;BMP280;10526;50.850;12.928;2024-03-23T04:39:48;96785.22;;;7.38
20730;BMP280;10526;50.850;12.928;2024-03-23T04:44:09;96794.41;;;7.34
20730;BMP280;10526;50.850;12.928;2024-03-23T04:48:30;96769.44;;;7.31
20730;BMP280;10526;50.850;12.928;2024-03-23T04:52:52;96746.88;;;7.23
20730;BMP280;10526;50.850;12.928;2024-03-23T04:57:13;96716.56;;;7.24
20730;BMP280;10526;50.850;12.928;2024-03-23T05:01:41;96717.44;;;7.18
20730;BMP280;10526;50.850;12.928;2024-03-23T05:06:03;96715.78;;;7.27
20730;BMP280;10526;50.850;12.928;2024-03-23T05:10:24;96724.06;;;7.29
20730;BMP280;10526;50.850;12.928;2024-03-23T05:14:45;96719.41;;;7.37
20730;BMP280;10526;50.850;12.928;2024-03-23T05:19:06;96723.16;;;7.39
20730;BMP280;10526;50.850;12.928;2024-03-23T05:23:29;96710.81;;;7.29
20730;BMP280;10526;50.850;12.928;2024-03-23T05:27:49;96678.34;;;7.25
20730;BMP280;10526;50.850;12.928;2024-03-23T05:32:11;96674.88;;;7.05
20730;BMP280;10526;50.850;12.928;2024-03-23T05:36:32;96679.97;;;6.92
20730;BMP280;10526;50.850;12.928;2024-03-23T05:41:00;96692.03;;;6.97
20730;BMP280;10526;50.850;12.928;2024-03-23T05:45:21;96668.31;;;7.13
20730;BMP280;10526;50.850;12.928;2024-03-23T05:49:43;96643.25;;;7.21
20730;BMP280;10526;50.850;12.928;2024-03-23T05:54:07;96640.44;;;7.08
20730;BMP280;10526;50.850;12.928;2024-03-23T05:58:28;96643.53;;;7.03
20730;BMP280;10526;50.850;12.928;2024-03-23T06:02:49;96641.84;;;7.13
20730;BMP280;10526;50.850;12.928;2024-03-23T06:07:10;96608.03;;;7.24
20730;BMP280;10526;50.850;12.928;2024-03-23T06:11:34;96608.84;;;7.21
20730;BMP280;10526;50.850;12.928;2024-03-23T06:15:56;96614.81;;;7.25
20730;BMP280;10526;50.850;12.928;2024-03-23T06:20:17;96599.50;;;7.36
20730;BMP280;10526;50.850;12.928;2024-03-23T06:24:38;96589.94;;;7.46
20730;BMP280;10526;50.850;12.928;2024-03-23T06:28:59;96584.22;;;7.48
20730;BMP280;10526;50.850;12.928;2024-03-23T06:33:20;96583.81;;;7.49
20730;BMP280;10526;50.850;12.928;2024-03-23T06:37:42;96571.69;;;7.48
20730;BMP280;10526;50.850;12.928;2024-03-23T06:42:03;96546.84;;;7.42
20730;BMP280;10526;50.850;12.928;2024-03-23T06:46:24;96555.13;;;7.44
20730;BMP280;10526;50.850;12.928;2024-03-23T06:51:23;96548.41;;;7.59
20730;BMP280;10526;50.850;12.928;2024-03-23T06:55:51;96548.16;;;7.74
20730;BMP280;10526;50.850;12.928;2024-03-23T07:00:14;96534.06;;;7.80
20730;BMP280;10526;50.850;12.928;2024-03-23T07:04:37;96520.44;;;7.78
20730;BMP280;10526;50.850;12.928;2024-03-23T07:09:00;96504.72;;;8.07
20730;BMP280;10526;50.850;12.928;2024-03-23T07:13:24;96508.34;;;8.33
20730;BMP280;10526;50.850;12.928;2024-03-23T07:17:49;96485.63;;;8.48
20730;BMP280;10526;50.850;12.928;2024-03-23T07:22:11;96472.03;;;8.63
20730;BMP280;10526;50.850;12.928;2024-03-23T07:26:32;96475.34;;;8.83
20730;BMP280;10526;50.850;12.928;2024-03-23T07:31:07;96463.59;;;9.26
20730;BMP280;10526;50.850;12.928;2024-03-23T07:35:31;96457.19;;;9.52
20730;BMP280;10526;50.850;12.928;2024-03-23T07:39:52;96442.09;;;9.62
20730;BMP280;10526;50.850;12.928;2024-03-23T07:44:14;96452.53;;;9.82
20730;BMP280;10526;50.850;12.928;2024-03-23T07:48:35;96456.53;;;10.25
20730;BMP280;10526;50.850;12.928;2024-03-23T07:52:56;96452.84;;;10.70
20730;BMP280;10526;50.850;12.928;2024-03-23T07:57:17;96437.63;;;11.36
20730;BMP280;10526;50.850;12.928;2024-03-23T08:01:38;96438.53;;;12.31
20730;BMP280;10526;50.850;12.928;2024-03-23T08:06:17;96418.47;;;13.85
20730;BMP280;10526;50.850;12.928;2024-03-23T08:10:52;96433.34;;;15.02
20730;BMP280;10526;50.850;12.928;2024-03-23T08:15:14;96443.66;;;14.26
20730;BMP280;10526;50.850;12.928;2024-03-23T08:19:35;96433.91;;;13.57
20730;BMP280;10526;50.850;12.928;2024-03-23T08:23:56;96436.09;;;13.16
20730;BMP280;10526;50.850;12.928;2024-03-23T08:28:17;96433.81;;;12.90
20730;BMP280;10526;50.850;12.928;2024-03-23T08:32:39;96428.63;;;12.59
20730;BMP280;10526;50.850;12.928;2024-03-23T08:37:00;96433.81;;;12.45
20730;BMP280;10526;50.850;12.928;2024-03-23T08:41:22;96452.41;;;12.08
20730;BMP280;10526;50.850;12.928;2024-03-23T08:45:43;96445.00;;;11.94
20730;BMP280;10526;50.850;12.928;2024-03-23T08:50:04;96420.69;;;12.01
20730;BMP280;10526;50.850;12.928;2024-03-23T08:54:26;96437.56;;;11.98
20730;BMP280;10526;50.850;12.928;2024-03-23T08:58:48;96468.03;;;11.78
20730;BMP280;10526;50.850;12.928;2024-03-23T09:03:09;96524.66;;;10.82
20730;BMP280;10526;50.850;12.928;2024-03-23T09:07:31;96531.81;;;9.71
20730;BMP280;10526;50.850;12.928;2024-03-23T09:11:52;96582.66;;;8.66
20730;BMP280;10526;50.850;12.928;2024-03-23T09:16:13;96631.41;;;7.76
20730;BMP280;10526;50.850;12.928;2024-03-23T09:20:34;96667.19;;;6.87
20730;BMP280;10526;50.850;12.928;2024-03-23T09:24:56;96702.06;;;6.06
20730;BMP280;10526;50.850;12.928;2024-03-23T09:29:17;96719.03;;;5.64
20730;BMP280;10526;50.850;12.928;2024-03-23T09:33:38;96724.50;;;5.43
20730;BMP280;10526;50.850;12.928;2024-03-23T09:37:59;96742.63;;;5.34
20730;BMP280;10526;50.850;12.928;2024-03-23T09:42:20;96776.63;;;5.17
20730;BMP280;10526;50.850;12.928;2024-03-23T09:46:41;96786.50;;;4.95
20730;BMP280;10526;50.850;12.928;2024-03-23T09:51:03;96801.22;;;5.00
20730;BMP280;10526;50.850;12.928;2024-03-23T09:55:24;96830.16;;;5.14
20730;BMP280;10526;50.850;12.928;2024-03-23T09:59:45;96846.81;;;5.04
20730;BMP280;10526;50.850;12.928;2024-03-23T10:04:06;96857.38;;;4.90
20730;BMP280;10526;50.850;12.928;2024-03-23T10:08:29;96892.81;;;4.82
20730;BMP280;10526;50.850;12.928;2024-03-23T10:12:51;96902.63;;;4.74
20730;BMP280;10526;50.850;12.928;2024-03-23T10:17:20;96919.94;;;4.68
20730;BMP280;10526;50.850;12.928;2024-03-23T10:21:52;96931.59;;;4.63
20730;BMP280;10526;50.850;12.928;2024-03-23T10:26:24;96934.63;;;4.62
20730;BMP280;10526;50.850;12.928;2024-03-23T10:30:46;96961.00;;;4.58
20730;BMP280;10526;50.850;12.928;2024-03-23T10:39:39;96982.09;;;4.65
20730;BMP280;10526;50.850;12.928;2024-03-23T10:44:02;96990.00;;;4.79
20730;BMP280;10526;50.850;12.928;2024-03-23T10:48:23;96990.78;;;4.94
20730;BMP280;10526;50.850;12.928;2024-03-23T10:52:47;96990.78;;;4.94
20730;BMP280;10526;50.850;12.928;2024-03-23T10:57:16;96995.28;;;4.83
20730;BMP280;10526;50.850;12.928;2024-03-23T11:01:55;97018.66;;;4.88
20730;BMP280;10526;50.850;12.928;2024-03-23T11:06:35;97007.75;;;5.11
20730;BMP280;10526;50.850;12.928;2024-03-23T11:11:21;97014.13;;;5.14
20730;BMP280;10526;50.850;12.928;2024-03-23T11:15:42;97026.91;;;5.29
20730;BMP280;10526;50.850;12.928;2024-03-23T11:20:05;97033.28;;;5.71
20730;BMP280;10526;50.850;12.928;2024-03-23T11:24:26;97034.00;;;5.82
20730;BMP280;10526;50.850;12.928;2024-03-23T11:28:47;97046.47;;;5.71
20730;BMP280;10526;50.850;12.928;2024-03-23T11:33:10;97046.13;;;5.73
20730;BMP280;10526;50.850;12.928;2024-03-23T11:37:31;97052.88;;;5.85
20730;BMP280;10526;50.850;12.928;2024-03-23T11:41:56;97042.31;;;5.85
20730;BMP280;10526;50.850;12.928;2024-03-23T11:46:23;97043.28;;;6.26
20730;BMP280;10526;50.850;12.928;2024-03-23T11:50:47;97036.59;;;6.04
20730;BMP280;10526;50.850;12.928;2024-03-23T11:55:09;97030.59;;;5.86
20730;BMP280;10526;50.850;12.928;2024-03-23T11:59:38;97035.22;;;6.51
20730;BMP280;10526;50.850;12.928;2024-03-23T12:04:02;97038.59;;;7.11
20730;BMP280;10526;50.850;12.928;2024-03-23T12:08:32;97044.09;;;7.27
20730;BMP280;10526;50.850;12.928;2024-03-23T12:13:01;97045.81;;;7.03
20730;BMP280;10526;50.850;12.928;2024-03-23T12:17:22;97061.13;;;6.78
20730;BMP280;10526;50.850;12.928;2024-03-23T12:21:43;97062.03;;;6.57
20730;BMP280;10526;50.850;12.928;2024-03-23T12:26:05;97053.78;;;6.41
20730;BMP280;10526;50.850;12.928;2024-03-23T12:30:27;97068.97;;;6.22
20730;BMP280;10526;50.850;12.928;2024-03-23T12:34:48;97069.81;;;6.05
20730;BMP280;10526;50.850;12.928;2024-03-23T12:39:09;97081.13;;;6.02
20730;BMP280;10526;50.850;12.928;2024-03-23T12:43:30;97073.63;;;5.79
20730;BMP280;10526;50.850;12.928;2024-03-23T12:47:52;97083.84;;;5.70
20730;BMP280;10526;50.850;12.928;2024-03-23T12:52:16;97089.50;;;5.61
20730;BMP280;10526;50.850;12.928;2024-03-23T12:56:37;97088.75;;;5.71
20730;BMP280;10526;50.850;12.928;2024-03-23T13:00:58;97072.19;;;6.62
20730;BMP280;10526;50.850;12.928;2024-03-23T13:05:19;97042.41;;;7.48
20730;BMP280;10526;50.850;12.928;2024-03-23T13:09:40;97042.50;;;7.75
20730;BMP280;10526;50.850;12.928;2024-03-23T13:14:02;97044.03;;;7.72
20730;BMP280;10526;50.850;12.928;2024-03-23T13:18:24;97047.25;;;7.90
20730;BMP280;10526;50.850;12.928;2024-03-23T13:22:45;97055.09;;;7.98
20730;BMP280;10526;50.850;12.928;2024-03-23T13:27:08;97054.31;;;8.01
20730;BMP280;10526;50.850;12.928;2024-03-23T13:31:31;97045.91;;;8.06
20730;BMP280;10526;50.850;12.928;2024-03-23T13:35:56;97030.47;;;8.01
20730;BMP280;10526;50.850;12.928;2024-03-23T13:40:17;97023.47;;;7.83
20730;BMP280;10526;50.850;12.928;2024-03-23T13:44:38;97024.19;;;7.87
20730;BMP280;10526;50.850;12.928;2024-03-23T13:49:00;97017.44;;;8.13
20730;BMP280;10526;50.850;12.928;2024-03-23T13:53:21;97004.78;;;8.75
20730;BMP280;10526;50.850;12.928;2024-03-23T13:57:44;97005.13;;;9.00
20730;BMP280;10526;50.850;12.928;2024-03-23T14:02:05;96987.16;;;9.08
20730;BMP280;10526;50.850;12.928;2024-03-23T14:06:27;96981.94;;;9.05
20730;BMP280;10526;50.850;12.928;2024-03-23T14:10:48;96985.91;;;8.93
20730;BMP280;10526;50.850;12.928;2024-03-23T14:15:09;96989.19;;;9.00
20730;BMP280;10526;50.850;12.928;2024-03-23T14:19:30;96985.16;;;8.92
20730;BMP280;10526;50.850;12.928;2024-03-23T14:23:52;96987.47;;;8.90
20730;BMP280;10526;50.850;12.928;2024-03-23T14:28:17;97002.72;;;8.86
20730;BMP280;10526;50.850;12.928;2024-03-23T14:32:38;97013.41;;;8.79
20730;BMP280;10526;50.850;12.928;2024-03-23T14:36:59;97002.59;;;8.93
20730;BMP280;10526;50.850;12.928;2024-03-23T14:41:20;96995.38;;;8.94
20730;BMP280;10526;50.850;12.928;2024-03-23T14:46:11;97005.50;;;9.02
20730;BMP280;10526;50.850;12.928;2024-03-23T14:50:33;97002.25;;;8.91
20730;BMP280;10526;50.850;12.928;2024-03-23T14:54:55;96998.41;;;9.16
20730;BMP280;10526;50.850;12.928;2024-03-23T14:59:17;97020.03;;;9.38
20730;BMP280;10526;50.850;12.928;2024-03-23T15:03:39;97014.31;;;9.39
20730;BMP280;10526;50.850;12.928;2024-03-23T15:08:01;97015.72;;;9.44
20730;BMP280;10526;50.850;12.928;2024-03-23T15:12:23;97003.72;;;9.55
20730;BMP280;10526;50.850;12.928;2024-03-23T15:16:44;96999.34;;;9.49
20730;BMP280;10526;50.850;12.928;2024-03-23T15:21:05;97000.28;;;9.39
20730;BMP280;10526;50.850;12.928;2024-03-23T15:25:28;97000.81;;;9.50
20730;BMP280;10526;50.850;12.928;2024-03-23T15:29:49;97000.00;;;9.53
20730;BMP280;10526;50.850;12.928;2024-03-23T15:34:10;97007.69;;;9.47
20730;BMP280;10526;50.850;12.928;2024-03-23T15:38:32;97002.22;;;9.35
20730;BMP280;10526;50.850;12.928;2024-03-23T15:42:53;96982.91;;;9.54
20730;BMP280;10526;50.850;12.928;2024-03-23T15:47:14;96996.06;;;9.41
20730;BMP280;10526;50.850;12.928;2024-03-23T15:51:35;96990.53;;;9.32
20730;BMP280;10526;50.850;12.928;2024-03-23T15:56:03;96986.75;;;9.33
20730;BMP280;10526;50.850;12.928;2024-03-23T16:00:24;96998.16;;;9.30
20730;BMP280;10526;50.850;12.928;2024-03-23T16:04:45;97014.50;;;8.85
20730;BMP280;10526;50.850;12.928;2024-03-23T16:09:06;97030.63;;;7.86
20730;BMP280;10526;50.850;12.928;2024-03-23T16:13:29;97029.59;;;6.98
20730;BMP280;10526;50.850;12.928;2024-03-23T16:17:51;97033.31;;;6.48
20730;BMP280;10526;50.850;12.928;2024-03-23T16:22:12;97053.50;;;6.17
20730;BMP280;10526;50.850;12.928;2024-03-23T16:26:33;97052.88;;;5.88
20730;BMP280;10526;50.850;12.928;2024-03-23T16:31:06;97055.56;;;5.70
20730;BMP280;10526;50.850;12.928;2024-03-23T16:35:27;97054.81;;;5.55
20730;BMP280;10526;50.850;12.928;2024-03-23T16:39:48;97054.41;;;5.64
20730;BMP280;10526;50.850;12.928;2024-03-23T16:44:09;97030.56;;;6.00
20730;BMP280;10526;50.850;12.928;2024-03-23T16:48:33;97035.72;;;6.32
20730;BMP280;10526;50.850;12.928;2024-03-23T16:52:55;97041.75;;;6.32
20730;BMP280;10526;50.850;12.928;2024-03-23T16:57:16;97042.63;;;6.04
20730;BMP280;10526;50.850;12.928;2024-03-23T17:01:37;97039.69;;;5.67
20730;BMP280;10526;50.850;12.928;2024-03-23T17:05:59;97042.41;;;5.38
20730;BMP280;10526;50.850;12.928;2024-03-23T17:10:23;97039.41;;;5.08
20730;BMP280;10526;50.850;12.928;2024-03-23T17:14:44;97045.78;;;4.85
20730;BMP280;10526;50.850;12.928;2024-03-23T17:19:05;97037.81;;;4.64
20730;BMP280;10526;50.850;12.928;2024-03-23T17:23:29;97030.63;;;4.46
20730;BMP280;10526;50.850;12.928;2024-03-23T17:27:51;97025.69;;;4.31
20730;BMP280;10526;50.850;12.928;2024-03-23T17:32:12;97025.66;;;4.16
20730;BMP280;10526;50.850;12.928;2024-03-23T17:36:33;97013.94;;;4.10
20730;BMP280;10526;50.850;12.928;2024-03-23T17:40:56;97016.19;;;4.08
20730;BMP280;10526;50.850;12.928;2024-03-23T17:45:17;97015.44;;;4.04
20730;BMP280;10526;50.850;12.928;2024-03-23T17:49:39;97004.88;;;4.00
20730;BMP280;10526;50.850;12.928;2024-03-23T17:54:00;97017.28;;;4.00
20730;BMP280;10526;50.850;12.928;2024-03-23T17:58:21;97014.69;;;4.04
20730;BMP280;10526;50.850;12.928;2024-03-23T18:02:42;97021.47;;;4.08
20730;BMP280;10526;50.850;12.928;2024-03-23T18:07:04;97023.69;;;4.03
20730;BMP280;10526;50.850;12.928;2024-03-23T18:11:25;97028.94;;;4.03
20730;BMP280;10526;50.850;12.928;2024-03-23T18:15:55;97030.47;;;4.00
20730;BMP280;10526;50.850;12.928;2024-03-23T18:20:16;97038.34;;;3.93
20730;BMP280;10526;50.850;12.928;2024-03-23T18:24:37;97041.69;;;3.90
20730;BMP280;10526;50.850;12.928;2024-03-23T18:28:58;97046.97;;;3.90
20730;BMP280;10526;50.850;12.928;2024-03-23T18:33:19;97036.44;;;3.90
20730;BMP280;10526;50.850;12.928;2024-03-23T18:37:40;97045.84;;;3.91
20730;BMP280;10526;50.850;12.928;2024-03-23T18:42:01;97051.06;;;3.87
20730;BMP280;10526;50.850;12.928;2024-03-23T18:46:23;97057.06;;;3.81
20730;BMP280;10526;50.850;12.928;2024-03-23T18:50:45;97052.94;;;3.83
20730;BMP280;10526;50.850;12.928;2024-03-23T18:55:06;97062.03;;;3.93
20730;BMP280;10526;50.850;12.928;2024-03-23T18:59:27;97060.25;;;4.11
20730;BMP280;10526;50.850;12.928;2024-03-23T19:03:48;97058.47;;;4.37
20730;BMP280;10526;50.850;12.928;2024-03-23T19:08:09;97062.28;;;4.50
20730;BMP280;10526;50.850;12.928;2024-03-23T19:12:30;97063.06;;;4.54
20730;BMP280;10526;50.850;12.928;2024-03-23T19:16:52;97066.41;;;4.47
20730;BMP280;10526;50.850;12.928;2024-03-23T19:21:14;97066.78;;;4.39
20730;BMP280;10526;50.850;12.928;2024-03-23T19:25:36;97054.66;;;4.27
20730;BMP280;10526;50.850;12.928;2024-03-23T19:29:56;97064.41;;;4.12
20730;BMP280;10526;50.850;12.928;2024-03-23T19:34:18;97065.06;;;4.02
20730;BMP280;10526;50.850;12.928;2024-03-23T19:38:42;97058.97;;;3.87
20730;BMP280;10526;50.850;12.928;2024-03-23T19:43:03;97047.59;;;3.72
20730;BMP280;10526;50.850;12.928;2024-03-23T19:47:24;97040.75;;;3.61
20730;BMP280;10526;50.850;12.928;2024-03-23T19:51:45;97039.19;;;3.53
20730;BMP280;10526;50.850;12.928;2024-03-23T19:56:07;97040.31;;;3.48
20730;BMP280;10526;50.850;12.928;2024-03-23T20:00:30;97046.69;;;3.43
20730;BMP280;10526;50.850;12.928;2024-03-23T20:04:51;97042.13;;;3.40
20730;BMP280;10526;50.850;12.928;2024-03-23T20:09:12;97034.22;;;3.37
20730;BMP280;10526;50.850;12.928;2024-03-23T20:13:34;97035.41;;;3.43
20730;BMP280;10526;50.850;12.928;2024-03-23T20:17:56;97040.66;;;3.43
20730;BMP280;10526;50.850;12.928;2024-03-23T20:22:18;97031.22;;;3.42
20730;BMP280;10526;50.850;12.928;2024-03-23T20:26:39;97036.88;;;3.40
20730;BMP280;10526;50.850;12.928;2024-03-23T20:31:03;97041.34;;;3.36
20730;BMP280;10526;50.850;12.928;2024-03-23T20:35:24;97030.03;;;3.32
20730;BMP280;10526;50.850;12.928;2024-03-23T20:39:45;97034.88;;;3.23
20730;BMP280;10526;50.850;12.928;2024-03-23T20:44:06;97035.22;;;3.21
20730;BMP280;10526;50.850;12.928;2024-03-23T20:48:29;97040.41;;;3.14
20730;BMP280;10526;50.850;12.928;2024-03-23T20:52:55;97034.78;;;3.12
20730;BMP280;10526;50.850;12.928;2024-03-23T20:57:16;97040.34;;;3.07
20730;BMP280;10526;50.850;12.928;2024-03-23T21:01:37;97027.53;;;3.02
20730;BMP280;10526;50.850;12.928;2024-03-23T21:05:59;97028.63;;;2.97
20730;BMP280;10526;50.850;12.928;2024-03-23T21:10:20;97029.41;;;3.02
20730;BMP280;10526;50.850;12.928;2024-03-23T21:14:41;97024.84;;;2.95
20730;BMP280;10526;50.850;12.928;2024-03-23T21:19:02;97024.78;;;2.88
20730;BMP280;10526;50.850;12.928;2024-03-23T21:23:25;97018.72;;;2.84
20730;BMP280;10526;50.850;12.928;2024-03-23T21:27:46;97010.50;;;2.85
20730;BMP280;10526;50.850;12.928;2024-03-23T21:32:07;97014.19;;;2.77
20730;BMP280;10526;50.850;12.928;2024-03-23T21:36:28;97011.44;;;2.66
20730;BMP280;10526;50.850;12.928;2024-03-23T21:40:58;97003.50;;;2.59
20730;BMP280;10526;50.850;12.928;2024-03-23T21:45:22;96997.91;;;2.64
20730;BMP280;10526;50.850;12.928;2024-03-23T21:49:45;97001.03;;;2.77
20730;BMP280;10526;50.850;12.928;2024-03-23T21:54:06;96999.22;;;2.85
20730;BMP280;10526;50.850;12.928;2024-03-23T21:58:28;96994.03;;;2.92
20730;BMP280;10526;50.850;12.928;2024-03-23T22:02:51;96992.97;;;3.00
20730;BMP280;10526;50.850;12.928;2024-03-23T22:07:12;96998.34;;;3.14
20730;BMP280;10526;50.850;12.928;2024-03-23T22:11:33;96983.75;;;3.20
20730;BMP280;10526;50.850;12.928;2024-03-23T22:15:58;96982.25;;;3.19
20730;BMP280;10526;50.850;12.928;2024-03-23T22:20:19;96979.53;;;3.12
20730;BMP280;10526;50.850;12.928;2024-03-23T22:24:41;96974.22;;;3.05
20730;BMP280;10526;50.850;12.928;2024-03-23T22:29:02;96980.16;;;2.95
20730;BMP280;10526;50.850;12.928;2024-03-23T22:33:23;96974.06;;;2.87
20730;BMP280;10526;50.850;12.928;2024-03-23T22:37:45;96963.84;;;2.79
20730;BMP280;10526;50.850;12.928;2024-03-23T22:42:07;96963.50;;;2.80
20730;BMP280;10526;50.850;12.928;2024-03-23T22:46:28;96959.00;;;2.81
20730;BMP280;10526;50.850;12.928;2024-03-23T22:50:54;96954.53;;;2.85
20730;BMP280;10526;50.850;12.928;2024-03-23T22:55:15;96956.75;;;2.83
20730;BMP280;10526;50.850;12.928;2024-03-23T22:59:36;96948.16;;;2.86
20730;BMP280;10526;50.850;12.928;2024-03-23T23:03:58;96955.25;;;2.82
20730;BMP280;10526;50.850;12.928;2024-03-23T23:08:19;96948.50;;;2.81
20730;BMP280;10526;50.850;12.928;2024-03-23T23:12:40;96945.06;;;2.77
20730;BMP280;10526;50.850;12.928;2024-03-23T23:17:01;96952.59;;;2.78
20730;BMP280;10526;50.850;12.928;2024-03-23T23:21:22;96941.63;;;2.72
20730;BMP280;10526;50.850;12.928;2024-03-23T23:25:43;96943.16;;;2.73
20730;BMP280;10526;50.850;12.928;2024-03-23T23:30:05;96944.69;;;2.74
20730;BMP280;10526;50.850;12.928;2024-03-23T23:34:26;96931.63;;;2.85
20730;BMP280;10526;50.850;12.928;2024-03-23T23:38:49;96932.00;;;2.87
20730;BMP280;10526;50.850;12.928;2024-03-23T23:43:10;96919.28;;;2.89
20730;BMP280;10526;50.850;12.928;2024-03-23T23:47:31;96916.94;;;2.81
20730;BMP280;10526;50.850;12.928;2024-03-23T23:51:53;96918.72;;;2.69
20730;BMP280;10526;50.850;12.928;2024-03-23T23:56:14;96914.56;;;2.61
